sensor_id;sensor_type;location;lat;lon;timestamp;P1;durP1;ratioP1;P2;durP2;ratioP2
12224;SDS011;6175;50.956;11.064;2023-05-10T00:02:13;4.32;;;2.78;;
12224;SDS011;6175;50.956;11.064;2023-05-10T00:04:40;2.67;;;2.47;;
12224;SDS011;6175;50.956;11.064;2023-05-10T00:07:08;3.42;;;2.80;;
12224;SDS011;6175;50.956;11.064;2023-05-10T00:09:35;2.95;;;2.70;;
12224;SDS011;6175;50.956;11.064;2023-05-10T00:12:02;3.00;;;2.75;;
12224;SDS011;6175;50.956;11.064;2023-05-10T00:14:29;5.35;;;2.72;;
12224;SDS011;6175;50.956;11.064;2023-05-10T00:16:56;3.13;;;2.83;;
12224;SDS011;6175;50.956;11.064;2023-05-10T00:19:25;3.65;;;3.33;;
12224;SDS011;6175;50.956;11.064;2023-05-10T00:21:52;4.15;;;3.10;;
12224;SDS011;6175;50.956;11.064;2023-05-10T00:24:19;3.33;;;3.03;;
12224;SDS011;6175;50.956;11.064;2023-05-10T00:26:46;3.22;;;2.85;;
12224;SDS011;6175;50.956;11.064;2023-05-10T00:29:14;3.92;;;2.97;;
12224;SDS011;6175;50.956;11.064;2023-05-10T00:31:41;3.95;;;2.70;;
12224;SDS011;6175;50.956;11.064;2023-05-10T00:34:08;3.20;;;2.90;;
12224;SDS011;6175;50.956;11.064;2023-05-10T00:36:37;4.05;;;2.90;;
12224;SDS011;6175;50.956;11.064;2023-05-10T00:39:04;4.43;;;3.10;;
12224;SDS011;6175;50.956;11.064;2023-05-10T00:41:31;2.90;;;2.70;;
12224;SDS011;6175;50.956;11.064;2023-05-10T00:43:58;3.20;;;2.90;;
12224;SDS011;6175;50.956;11.064;2023-05-10T00:46:27;3.22;;;3.00;;
12224;SDS011;6175;50.956;11.064;2023-05-10T00:48:54;5.50;;;3.25;;
12224;SDS011;6175;50.956;11.064;2023-05-10T00:51:21;4.28;;;2.80;;
12224;SDS011;6175;50.956;11.064;2023-05-10T00:53:49;4.18;;;3.00;;
12224;SDS011;6175;50.956;11.064;2023-05-10T00:56:17;4.63;;;2.63;;
12224;SDS011;6175;50.956;11.064;2023-05-10T00:58:45;3.92;;;3.15;;
12224;SDS011;6175;50.956;11.064;2023-05-10T01:01:12;3.17;;;2.90;;
12224;SDS011;6175;50.956;11.064;2023-05-10T01:03:40;2.90;;;2.65;;
12224;SDS011;6175;50.956;11.064;2023-05-10T01:06:07;2.88;;;2.60;;
12224;SDS011;6175;50.956;11.064;2023-05-10T01:08:34;2.83;;;2.63;;
12224;SDS011;6175;50.956;11.064;2023-05-10T01:11:03;3.28;;;2.97;;
12224;SDS011;6175;50.956;11.064;2023-05-10T01:13:33;3.10;;;2.80;;
12224;SDS011;6175;50.956;11.064;2023-05-10T01:16:01;3.28;;;2.95;;
12224;SDS011;6175;50.956;11.064;2023-05-10T01:18:29;3.00;;;2.80;;
12224;SDS011;6175;50.956;11.064;2023-05-10T01:20:59;3.85;;;2.78;;
12224;SDS011;6175;50.956;11.064;2023-05-10T01:23:40;3.13;;;2.80;;
12224;SDS011;6175;50.956;11.064;2023-05-10T01:26:19;3.28;;;2.97;;
12224;SDS011;6175;50.956;11.064;2023-05-10T01:29:05;3.72;;;2.90;;
12224;SDS011;6175;50.956;11.064;2023-05-10T01:31:54;3.22;;;2.92;;
12224;SDS011;6175;50.956;11.064;2023-05-10T01:34:42;4.65;;;2.50;;
12224;SDS011;6175;50.956;11.064;2023-05-10T01:37:20;3.03;;;2.72;;
12224;SDS011;6175;50.956;11.064;2023-05-10T01:39:49;2.95;;;2.60;;
12224;SDS011;6175;50.956;11.064;2023-05-10T01:42:25;2.70;;;2.50;;
12224;SDS011;6175;50.956;11.064;2023-05-10T01:44:54;2.90;;;2.67;;
12224;SDS011;6175;50.956;11.064;2023-05-10T01:47:27;2.70;;;2.38;;
12224;SDS011;6175;50.956;11.064;2023-05-10T01:50:00;2.80;;;2.60;;
12224;SDS011;6175;50.956;11.064;2023-05-10T01:52:30;3.22;;;2.92;;
12224;SDS011;6175;50.956;11.064;2023-05-10T01:55:00;6.15;;;2.95;;
12224;SDS011;6175;50.956;11.064;2023-05-10T01:57:31;2.83;;;2.63;;
12224;SDS011;6175;50.956;11.064;2023-05-10T02:00:00;3.20;;;2.90;;
12224;SDS011;6175;50.956;11.064;2023-05-10T02:02:30;2.85;;;2.65;;
12224;SDS011;6175;50.956;11.064;2023-05-10T02:04:57;2.97;;;2.67;;
12224;SDS011;6175;50.956;11.064;2023-05-10T02:07:26;2.90;;;2.70;;
12224;SDS011;6175;50.956;11.064;2023-05-10T02:09:53;2.55;;;2.35;;
12224;SDS011;6175;50.956;11.064;2023-05-10T02:12:22;3.03;;;2.70;;
12224;SDS011;6175;50.956;11.064;2023-05-10T02:14:50;3.58;;;2.67;;
12224;SDS011;6175;50.956;11.064;2023-05-10T02:17:17;3.97;;;2.60;;
12224;SDS011;6175;50.956;11.064;2023-05-10T02:19:46;3.00;;;2.72;;
12224;SDS011;6175;50.956;11.064;2023-05-10T02:22:14;3.00;;;2.70;;
12224;SDS011;6175;50.956;11.064;2023-05-10T02:24:45;3.17;;;2.53;;
12224;SDS011;6175;50.956;11.064;2023-05-10T02:27:13;2.75;;;2.55;;
12224;SDS011;6175;50.956;11.064;2023-05-10T02:29:41;3.25;;;2.95;;
12224;SDS011;6175;50.956;11.064;2023-05-10T02:32:08;2.83;;;2.53;;
12224;SDS011;6175;50.956;11.064;2023-05-10T02:34:37;3.83;;;2.83;;
12224;SDS011;6175;50.956;11.064;2023-05-10T02:37:06;2.75;;;2.55;;
12224;SDS011;6175;50.956;11.064;2023-05-10T02:39:35;2.70;;;2.50;;
12224;SDS011;6175;50.956;11.064;2023-05-10T02:42:03;3.00;;;2.80;;
12224;SDS011;6175;50.956;11.064;2023-05-10T02:44:31;3.05;;;2.78;;
12224;SDS011;6175;50.956;11.064;2023-05-10T02:46:59;3.90;;;2.80;;
12224;SDS011;6175;50.956;11.064;2023-05-10T02:49:26;3.17;;;2.90;;
12224;SDS011;6175;50.956;11.064;2023-05-10T02:51:55;3.20;;;2.90;;
12224;SDS011;6175;50.956;11.064;2023-05-10T02:54:27;2.70;;;2.50;;
12224;SDS011;6175;50.956;11.064;2023-05-10T02:56:56;4.32;;;2.92;;
12224;SDS011;6175;50.956;11.064;2023-05-10T02:59:25;4.43;;;2.97;;
12224;SDS011;6175;50.956;11.064;2023-05-10T03:01:53;3.65;;;3.35;;
12224;SDS011;6175;50.956;11.064;2023-05-10T03:04:20;2.90;;;2.65;;
12224;SDS011;6175;50.956;11.064;2023-05-10T03:06:47;3.80;;;2.88;;
12224;SDS011;6175;50.956;11.064;2023-05-10T03:09:14;3.13;;;2.90;;
12224;SDS011;6175;50.956;11.064;2023-05-10T03:11:49;3.60;;;2.90;;
12224;SDS011;6175;50.956;11.064;2023-05-10T03:14:21;4.32;;;3.58;;
12224;SDS011;6175;50.956;11.064;2023-05-10T03:17:10;3.40;;;3.10;;
12224;SDS011;6175;50.956;11.064;2023-05-10T03:19:43;3.10;;;2.80;;
12224;SDS011;6175;50.956;11.064;2023-05-10T03:22:11;3.13;;;2.90;;
12224;SDS011;6175;50.956;11.064;2023-05-10T03:24:42;3.75;;;3.22;;
12224;SDS011;6175;50.956;11.064;2023-05-10T03:27:11;3.65;;;3.13;;
12224;SDS011;6175;50.956;11.064;2023-05-10T03:29:38;3.95;;;3.33;;
12224;SDS011;6175;50.956;11.064;2023-05-10T03:32:05;3.58;;;3.22;;
12224;SDS011;6175;50.956;11.064;2023-05-10T03:34:33;5.18;;;3.58;;
12224;SDS011;6175;50.956;11.064;2023-05-10T03:37:01;6.05;;;4.07;;
12224;SDS011;6175;50.956;11.064;2023-05-10T03:39:28;3.53;;;3.22;;
12224;SDS011;6175;50.956;11.064;2023-05-10T03:41:56;3.65;;;3.35;;
12224;SDS011;6175;50.956;11.064;2023-05-10T03:44:24;3.72;;;3.35;;
12224;SDS011;6175;50.956;11.064;2023-05-10T03:46:51;3.97;;;3.67;;
12224;SDS011;6175;50.956;11.064;2023-05-10T03:49:18;5.95;;;3.78;;
12224;SDS011;6175;50.956;11.064;2023-05-10T03:51:45;4.38;;;3.97;;
12224;SDS011;6175;50.956;11.064;2023-05-10T03:54:13;4.65;;;4.03;;
12224;SDS011;6175;50.956;11.064;2023-05-10T03:56:40;4.03;;;3.70;;
12224;SDS011;6175;50.956;11.064;2023-05-10T03:59:07;3.78;;;3.47;;
12224;SDS011;6175;50.956;11.064;2023-05-10T04:01:36;4.22;;;3.80;;
12224;SDS011;6175;50.956;11.064;2023-05-10T04:04:03;4.43;;;4.03;;
12224;SDS011;6175;50.956;11.064;2023-05-10T04:06:30;4.90;;;4.50;;
12224;SDS011;6175;50.956;11.064;2023-05-10T04:08:57;4.80;;;4.30;;
12224;SDS011;6175;50.956;11.064;2023-05-10T04:11:28;5.18;;;4.40;;
12224;SDS011;6175;50.956;11.064;2023-05-10T04:13:55;4.18;;;3.78;;
12224;SDS011;6175;50.956;11.064;2023-05-10T04:16:23;4.05;;;3.75;;
12224;SDS011;6175;50.956;11.064;2023-05-10T04:18:51;4.30;;;3.92;;
12224;SDS011;6175;50.956;11.064;2023-05-10T04:21:18;4.63;;;4.22;;
12224;SDS011;6175;50.956;11.064;2023-05-10T04:23:45;4.50;;;3.88;;
12224;SDS011;6175;50.956;11.064;2023-05-10T04:26:13;4.80;;;4.22;;
12224;SDS011;6175;50.956;11.064;2023-05-10T04:28:40;4.90;;;4.50;;
12224;SDS011;6175;50.956;11.064;2023-05-10T04:31:08;4.57;;;4.18;;
12224;SDS011;6175;50.956;11.064;2023-05-10T04:33:36;4.97;;;4.57;;
12224;SDS011;6175;50.956;11.064;2023-05-10T04:36:06;5.22;;;4.60;;
12224;SDS011;6175;50.956;11.064;2023-05-10T04:38:33;4.45;;;4.05;;
12224;SDS011;6175;50.956;11.064;2023-05-10T04:41:04;6.28;;;5.07;;
12224;SDS011;6175;50.956;11.064;2023-05-10T04:43:31;7.20;;;5.03;;
12224;SDS011;6175;50.956;11.064;2023-05-10T04:45:58;5.30;;;4.80;;
12224;SDS011;6175;50.956;11.064;2023-05-10T04:48:25;5.07;;;4.63;;
12224;SDS011;6175;50.956;11.064;2023-05-10T04:50:53;4.95;;;4.55;;
12224;SDS011;6175;50.956;11.064;2023-05-10T04:53:22;4.97;;;4.50;;
12224;SDS011;6175;50.956;11.064;2023-05-10T04:55:49;5.82;;;5.20;;
12224;SDS011;6175;50.956;11.064;2023-05-10T04:58:16;5.68;;;5.03;;
12224;SDS011;6175;50.956;11.064;2023-05-10T05:00:43;5.43;;;4.93;;
12224;SDS011;6175;50.956;11.064;2023-05-10T05:03:10;5.57;;;5.07;;
12224;SDS011;6175;50.956;11.064;2023-05-10T05:05:38;5.05;;;4.65;;
12224;SDS011;6175;50.956;11.064;2023-05-10T05:08:05;5.63;;;4.60;;
12224;SDS011;6175;50.956;11.064;2023-05-10T05:10:33;5.38;;;4.82;;
12224;SDS011;6175;50.956;11.064;2023-05-10T05:13:01;4.80;;;4.40;;
12224;SDS011;6175;50.956;11.064;2023-05-10T05:15:28;5.15;;;4.70;;
12224;SDS011;6175;50.956;11.064;2023-05-10T05:17:55;5.05;;;4.65;;
12224;SDS011;6175;50.956;11.064;2023-05-10T05:20:22;5.38;;;4.65;;
12224;SDS011;6175;50.956;11.064;2023-05-10T05:22:49;5.32;;;4.85;;
12224;SDS011;6175;50.956;11.064;2023-05-10T05:25:17;13.27;;;5.50;;
12224;SDS011;6175;50.956;11.064;2023-05-10T05:27:45;5.05;;;4.55;;
12224;SDS011;6175;50.956;11.064;2023-05-10T05:30:12;5.40;;;4.90;;
12224;SDS011;6175;50.956;11.064;2023-05-10T05:32:39;5.97;;;5.38;;
12224;SDS011;6175;50.956;11.064;2023-05-10T05:35:07;4.97;;;4.55;;
12224;SDS011;6175;50.956;11.064;2023-05-10T05:37:34;5.00;;;4.60;;
12224;SDS011;6175;50.956;11.064;2023-05-10T05:40:02;8.20;;;4.95;;
12224;SDS011;6175;50.956;11.064;2023-05-10T05:42:30;5.20;;;4.70;;
12224;SDS011;6175;50.956;11.064;2023-05-10T05:44:59;6.57;;;5.32;;
12224;SDS011;6175;50.956;11.064;2023-05-10T05:47:26;5.50;;;4.80;;
12224;SDS011;6175;50.956;11.064;2023-05-10T05:49:53;5.25;;;4.63;;
12224;SDS011;6175;50.956;11.064;2023-05-10T05:52:20;5.55;;;4.80;;
12224;SDS011;6175;50.956;11.064;2023-05-10T05:54:47;5.80;;;4.97;;
12224;SDS011;6175;50.956;11.064;2023-05-10T05:57:14;5.53;;;5.03;;
12224;SDS011;6175;50.956;11.064;2023-05-10T05:59:42;5.60;;;5.07;;
12224;SDS011;6175;50.956;11.064;2023-05-10T06:02:10;5.85;;;4.80;;
12224;SDS011;6175;50.956;11.064;2023-05-10T06:04:37;6.90;;;4.90;;
12224;SDS011;6175;50.956;11.064;2023-05-10T06:07:05;5.20;;;4.47;;
12224;SDS011;6175;50.956;11.064;2023-05-10T06:09:32;5.78;;;4.72;;
12224;SDS011;6175;50.956;11.064;2023-05-10T06:11:59;8.60;;;4.60;;
12224;SDS011;6175;50.956;11.064;2023-05-10T06:14:26;5.20;;;4.63;;
12224;SDS011;6175;50.956;11.064;2023-05-10T06:16:53;5.45;;;4.78;;
12224;SDS011;6175;50.956;11.064;2023-05-10T06:19:22;4.60;;;4.20;;
12224;SDS011;6175;50.956;11.064;2023-05-10T06:21:49;4.93;;;4.45;;
12224;SDS011;6175;50.956;11.064;2023-05-10T06:24:16;5.25;;;4.38;;
12224;SDS011;6175;50.956;11.064;2023-05-10T06:26:43;5.13;;;4.63;;
12224;SDS011;6175;50.956;11.064;2023-05-10T06:29:10;4.70;;;4.30;;
12224;SDS011;6175;50.956;11.064;2023-05-10T06:31:37;4.57;;;4.18;;
12224;SDS011;6175;50.956;11.064;2023-05-10T06:34:04;4.63;;;4.10;;
12224;SDS011;6175;50.956;11.064;2023-05-10T06:36:34;4.55;;;4.15;;
12224;SDS011;6175;50.956;11.064;2023-05-10T06:39:01;3.65;;;3.20;;
12224;SDS011;6175;50.956;11.064;2023-05-10T06:41:28;4.50;;;3.50;;
12224;SDS011;6175;50.956;11.064;2023-05-10T06:43:55;4.20;;;3.63;;
12224;SDS011;6175;50.956;11.064;2023-05-10T06:46:23;3.10;;;2.90;;
12224;SDS011;6175;50.956;11.064;2023-05-10T06:48:50;3.20;;;2.90;;
12224;SDS011;6175;50.956;11.064;2023-05-10T06:51:17;3.75;;;3.17;;
12224;SDS011;6175;50.956;11.064;2023-05-10T06:53:47;3.13;;;2.47;;
12224;SDS011;6175;50.956;11.064;2023-05-10T06:56:14;2.53;;;2.33;;
12224;SDS011;6175;50.956;11.064;2023-05-10T06:58:42;2.50;;;2.30;;
12224;SDS011;6175;50.956;11.064;2023-05-10T07:01:09;2.65;;;1.95;;
12224;SDS011;6175;50.956;11.064;2023-05-10T07:03:36;2.05;;;1.70;;
12224;SDS011;6175;50.956;11.064;2023-05-10T07:06:03;1.85;;;1.60;;
12224;SDS011;6175;50.956;11.064;2023-05-10T07:08:32;2.20;;;2.00;;
12224;SDS011;6175;50.956;11.064;2023-05-10T07:11:01;1.95;;;1.80;;
12224;SDS011;6175;50.956;11.064;2023-05-10T07:13:29;1.70;;;1.60;;
12224;SDS011;6175;50.956;11.064;2023-05-10T07:15:57;1.95;;;1.60;;
12224;SDS011;6175;50.956;11.064;2023-05-10T07:18:24;1.70;;;1.60;;
12224;SDS011;6175;50.956;11.064;2023-05-10T07:20:51;1.55;;;1.42;;
12224;SDS011;6175;50.956;11.064;2023-05-10T07:23:19;1.45;;;1.35;;
12224;SDS011;6175;50.956;11.064;2023-05-10T07:25:46;2.10;;;1.60;;
12224;SDS011;6175;50.956;11.064;2023-05-10T07:28:15;1.80;;;1.50;;
12224;SDS011;6175;50.956;11.064;2023-05-10T07:30:44;1.35;;;1.25;;
12224;SDS011;6175;50.956;11.064;2023-05-10T07:33:11;1.50;;;1.40;;
12224;SDS011;6175;50.956;11.064;2023-05-10T07:35:39;1.83;;;1.45;;
12224;SDS011;6175;50.956;11.064;2023-05-10T07:38:07;2.38;;;1.30;;
12224;SDS011;6175;50.956;11.064;2023-05-10T07:40:36;1.42;;;1.30;;
12224;SDS011;6175;50.956;11.064;2023-05-10T07:43:03;1.83;;;1.38;;
12224;SDS011;6175;50.956;11.064;2023-05-10T07:45:32;1.05;;;1.05;;
12224;SDS011;6175;50.956;11.064;2023-05-10T07:47:59;1.13;;;1.08;;
12224;SDS011;6175;50.956;11.064;2023-05-10T07:50:26;0.90;;;0.90;;
12224;SDS011;6175;50.956;11.064;2023-05-10T07:52:54;1.00;;;0.98;;
12224;SDS011;6175;50.956;11.064;2023-05-10T07:55:21;1.30;;;1.00;;
12224;SDS011;6175;50.956;11.064;2023-05-10T07:57:48;0.82;;;0.82;;
12224;SDS011;6175;50.956;11.064;2023-05-10T08:00:17;2.08;;;1.10;;
12224;SDS011;6175;50.956;11.064;2023-05-10T08:02:46;1.08;;;1.05;;
12224;SDS011;6175;50.956;11.064;2023-05-10T08:05:14;0.80;;;0.80;;
12224;SDS011;6175;50.956;11.064;2023-05-10T08:07:41;1.00;;;1.00;;
12224;SDS011;6175;50.956;11.064;2023-05-10T08:10:08;1.02;;;0.75;;
12224;SDS011;6175;50.956;11.064;2023-05-10T08:12:37;0.82;;;0.82;;
12224;SDS011;6175;50.956;11.064;2023-05-10T08:15:04;0.77;;;0.77;;
12224;SDS011;6175;50.956;11.064;2023-05-10T08:17:32;0.55;;;0.55;;
12224;SDS011;6175;50.956;11.064;2023-05-10T08:20:00;0.68;;;0.68;;
12224;SDS011;6175;50.956;11.064;2023-05-10T08:22:28;0.60;;;0.60;;
12224;SDS011;6175;50.956;11.064;2023-05-10T08:24:55;0.63;;;0.63;;
12224;SDS011;6175;50.956;11.064;2023-05-10T08:27:22;0.35;;;0.35;;
12224;SDS011;6175;50.956;11.064;2023-05-10T08:29:49;0.50;;;0.50;;
12224;SDS011;6175;50.956;11.064;2023-05-10T08:32:16;2.08;;;0.52;;
12224;SDS011;6175;50.956;11.064;2023-05-10T08:34:43;1.52;;;0.80;;
12224;SDS011;6175;50.956;11.064;2023-05-10T08:37:12;0.52;;;0.52;;
12224;SDS011;6175;50.956;11.064;2023-05-10T08:39:39;0.50;;;0.50;;
12224;SDS011;6175;50.956;11.064;2023-05-10T08:42:06;0.55;;;0.40;;
12224;SDS011;6175;50.956;11.064;2023-05-10T08:44:35;0.40;;;0.40;;
12224;SDS011;6175;50.956;11.064;2023-05-10T08:47:04;0.50;;;0.50;;
12224;SDS011;6175;50.956;11.064;2023-05-10T08:49:31;0.40;;;0.40;;
12224;SDS011;6175;50.956;11.064;2023-05-10T08:51:59;1.05;;;0.50;;
12224;SDS011;6175;50.956;11.064;2023-05-10T08:54:30;0.30;;;0.30;;
12224;SDS011;6175;50.956;11.064;2023-05-10T08:56:58;1.42;;;0.30;;
12224;SDS011;6175;50.956;11.064;2023-05-10T08:59:25;0.57;;;0.52;;
12224;SDS011;6175;50.956;11.064;2023-05-10T09:01:52;0.28;;;0.28;;
12224;SDS011;6175;50.956;11.064;2023-05-10T09:04:21;0.30;;;0.30;;
12224;SDS011;6175;50.956;11.064;2023-05-10T09:06:49;0.30;;;0.30;;
12224;SDS011;6175;50.956;11.064;2023-05-10T09:09:16;0.40;;;0.40;;
12224;SDS011;6175;50.956;11.064;2023-05-10T09:11:45;0.30;;;0.30;;
12224;SDS011;6175;50.956;11.064;2023-05-10T09:14:12;0.85;;;0.30;;
12224;SDS011;6175;50.956;11.064;2023-05-10T09:16:40;1.50;;;0.50;;
12224;SDS011;6175;50.956;11.064;2023-05-10T09:19:07;0.73;;;0.30;;
12224;SDS011;6175;50.956;11.064;2023-05-10T09:21:35;0.47;;;0.38;;
12224;SDS011;6175;50.956;11.064;2023-05-10T09:24:03;2.28;;;0.47;;
12224;SDS011;6175;50.956;11.064;2023-05-10T09:26:31;0.30;;;0.30;;
12224;SDS011;6175;50.956;11.064;2023-05-10T09:28:59;0.30;;;0.30;;
12224;SDS011;6175;50.956;11.064;2023-05-10T09:34:09;0.55;;;0.55;;
12224;SDS011;6175;50.956;11.064;2023-05-10T09:36:36;1.45;;;0.47;;
12224;SDS011;6175;50.956;11.064;2023-05-10T09:39:15;1.23;;;0.40;;
12224;SDS011;6175;50.956;11.064;2023-05-10T09:41:43;0.40;;;0.40;;
12224;SDS011;6175;50.956;11.064;2023-05-10T09:44:14;0.47;;;0.47;;
12224;SDS011;6175;50.956;11.064;2023-05-10T09:46:48;0.70;;;0.70;;
12224;SDS011;6175;50.956;11.064;2023-05-10T09:49:15;0.90;;;0.63;;
12224;SDS011;6175;50.956;11.064;2023-05-10T09:51:42;0.73;;;0.70;;
12224;SDS011;6175;50.956;11.064;2023-05-10T09:54:10;1.00;;;0.57;;
12224;SDS011;6175;50.956;11.064;2023-05-10T09:56:38;1.60;;;0.32;;
12224;SDS011;6175;50.956;11.064;2023-05-10T09:59:06;0.50;;;0.50;;
12224;SDS011;6175;50.956;11.064;2023-05-10T10:01:35;0.77;;;0.50;;
12224;SDS011;6175;50.956;11.064;2023-05-10T10:04:03;0.73;;;0.73;;
12224;SDS011;6175;50.956;11.064;2023-05-10T10:06:34;0.73;;;0.60;;
12224;SDS011;6175;50.956;11.064;2023-05-10T10:09:02;0.47;;;0.47;;
12224;SDS011;6175;50.956;11.064;2023-05-10T10:11:30;0.73;;;0.73;;
12224;SDS011;6175;50.956;11.064;2023-05-10T10:13:57;0.70;;;0.70;;
12224;SDS011;6175;50.956;11.064;2023-05-10T10:16:24;0.60;;;0.60;;
12224;SDS011;6175;50.956;11.064;2023-05-10T10:18:54;0.68;;;0.68;;
12224;SDS011;6175;50.956;11.064;2023-05-10T10:21:21;0.60;;;0.60;;
12224;SDS011;6175;50.956;11.064;2023-05-10T10:23:48;0.50;;;0.50;;
12224;SDS011;6175;50.956;11.064;2023-05-10T10:26:16;0.75;;;0.75;;
12224;SDS011;6175;50.956;11.064;2023-05-10T10:28:45;0.57;;;0.55;;
12224;SDS011;6175;50.956;11.064;2023-05-10T10:31:17;1.35;;;0.90;;
12224;SDS011;6175;50.956;11.064;2023-05-10T10:33:51;0.60;;;0.60;;
12224;SDS011;6175;50.956;11.064;2023-05-10T10:36:25;0.50;;;0.50;;
12224;SDS011;6175;50.956;11.064;2023-05-10T10:38:57;0.60;;;0.60;;
12224;SDS011;6175;50.956;11.064;2023-05-10T10:41:29;0.40;;;0.40;;
12224;SDS011;6175;50.956;11.064;2023-05-10T10:46:58;0.40;;;0.40;;
12224;SDS011;6175;50.956;11.064;2023-05-10T10:49:26;0.60;;;0.60;;
12224;SDS011;6175;50.956;11.064;2023-05-10T10:52:13;0.65;;;0.65;;
12224;SDS011;6175;50.956;11.064;2023-05-10T10:54:41;0.55;;;0.50;;
12224;SDS011;6175;50.956;11.064;2023-05-10T10:57:11;0.65;;;0.65;;
12224;SDS011;6175;50.956;11.064;2023-05-10T10:59:41;0.80;;;0.68;;
12224;SDS011;6175;50.956;11.064;2023-05-10T11:02:09;1.15;;;0.80;;
12224;SDS011;6175;50.956;11.064;2023-05-10T11:04:44;0.80;;;0.80;;
12224;SDS011;6175;50.956;11.064;2023-05-10T11:07:18;0.70;;;0.70;;
12224;SDS011;6175;50.956;11.064;2023-05-10T11:09:46;5.03;;;1.20;;
12224;SDS011;6175;50.956;11.064;2023-05-10T11:12:13;4.28;;;1.50;;
12224;SDS011;6175;50.956;11.064;2023-05-10T11:14:40;6.47;;;1.40;;
12224;SDS011;6175;50.956;11.064;2023-05-10T11:20:07;2.97;;;0.88;;
12224;SDS011;6175;50.956;11.064;2023-05-10T11:22:48;0.70;;;0.70;;
12224;SDS011;6175;50.956;11.064;2023-05-10T11:25:16;0.60;;;0.60;;
12224;SDS011;6175;50.956;11.064;2023-05-10T11:27:43;0.60;;;0.60;;
12224;SDS011;6175;50.956;11.064;2023-05-10T11:30:11;1.38;;;0.93;;
12224;SDS011;6175;50.956;11.064;2023-05-10T11:32:39;0.70;;;0.70;;
12224;SDS011;6175;50.956;11.064;2023-05-10T11:35:08;20.40;;;3.42;;
12224;SDS011;6175;50.956;11.064;2023-05-10T11:37:36;4.20;;;1.33;;
12224;SDS011;6175;50.956;11.064;2023-05-10T11:40:06;0.80;;;0.80;;
12224;SDS011;6175;50.956;11.064;2023-05-10T11:42:35;1.27;;;1.17;;
12224;SDS011;6175;50.956;11.064;2023-05-10T11:45:03;1.00;;;1.00;;
12224;SDS011;6175;50.956;11.064;2023-05-10T11:47:30;1.17;;;1.17;;
12224;SDS011;6175;50.956;11.064;2023-05-10T11:49:57;1.42;;;1.33;;
12224;SDS011;6175;50.956;11.064;2023-05-10T11:52:27;1.50;;;1.40;;
12224;SDS011;6175;50.956;11.064;2023-05-10T11:54:55;1.50;;;1.38;;
12224;SDS011;6175;50.956;11.064;2023-05-10T11:57:25;0.90;;;0.90;;
12224;SDS011;6175;50.956;11.064;2023-05-10T11:59:53;1.25;;;1.05;;
12224;SDS011;6175;50.956;11.064;2023-05-10T12:02:21;0.90;;;0.85;;
12224;SDS011;6175;50.956;11.064;2023-05-10T12:04:48;1.15;;;1.00;;
12224;SDS011;6175;50.956;11.064;2023-05-10T12:07:15;0.95;;;0.95;;
12224;SDS011;6175;50.956;11.064;2023-05-10T12:09:44;0.80;;;0.80;;
12224;SDS011;6175;50.956;11.064;2023-05-10T12:12:15;1.27;;;0.82;;
12224;SDS011;6175;50.956;11.064;2023-05-10T12:14:43;0.88;;;0.88;;
12224;SDS011;6175;50.956;11.064;2023-05-10T12:17:11;1.27;;;1.10;;
12224;SDS011;6175;50.956;11.064;2023-05-10T12:19:39;1.48;;;0.85;;
12224;SDS011;6175;50.956;11.064;2023-05-10T12:22:06;0.60;;;0.60;;
12224;SDS011;6175;50.956;11.064;2023-05-10T12:24:34;0.63;;;0.63;;
12224;SDS011;6175;50.956;11.064;2023-05-10T12:27:05;0.75;;;0.70;;
12224;SDS011;6175;50.956;11.064;2023-05-10T12:29:33;0.60;;;0.60;;
12224;SDS011;6175;50.956;11.064;2023-05-10T12:32:00;0.70;;;0.60;;
12224;SDS011;6175;50.956;11.064;2023-05-10T12:34:30;0.60;;;0.60;;
12224;SDS011;6175;50.956;11.064;2023-05-10T12:36:57;0.55;;;0.50;;
12224;SDS011;6175;50.956;11.064;2023-05-10T12:39:25;0.98;;;0.63;;
12224;SDS011;6175;50.956;11.064;2023-05-10T12:41:52;0.70;;;0.70;;
12224;SDS011;6175;50.956;11.064;2023-05-10T12:44:20;0.70;;;0.55;;
12224;SDS011;6175;50.956;11.064;2023-05-10T12:46:48;0.50;;;0.50;;
12224;SDS011;6175;50.956;11.064;2023-05-10T12:49:15;0.60;;;0.60;;
12224;SDS011;6175;50.956;11.064;2023-05-10T12:51:43;0.50;;;0.50;;
12224;SDS011;6175;50.956;11.064;2023-05-10T12:54:11;0.80;;;0.60;;
12224;SDS011;6175;50.956;11.064;2023-05-10T12:56:38;0.45;;;0.45;;
12224;SDS011;6175;50.956;11.064;2023-05-10T12:59:06;0.50;;;0.50;;
12224;SDS011;6175;50.956;11.064;2023-05-10T13:01:34;0.60;;;0.60;;
12224;SDS011;6175;50.956;11.064;2023-05-10T13:04:01;0.60;;;0.60;;
12224;SDS011;6175;50.956;11.064;2023-05-10T13:06:28;4.05;;;0.80;;
12224;SDS011;6175;50.956;11.064;2023-05-10T13:08:55;1.50;;;0.70;;
12224;SDS011;6175;50.956;11.064;2023-05-10T13:11:23;0.63;;;0.63;;
12224;SDS011;6175;50.956;11.064;2023-05-10T13:13:51;1.05;;;0.63;;
12224;SDS011;6175;50.956;11.064;2023-05-10T13:16:17;0.85;;;0.70;;
12224;SDS011;6175;50.956;11.064;2023-05-10T13:18:46;0.52;;;0.40;;
12224;SDS011;6175;50.956;11.064;2023-05-10T13:21:13;1.45;;;0.60;;
12224;SDS011;6175;50.956;11.064;2023-05-10T13:23:41;0.70;;;0.70;;
12224;SDS011;6175;50.956;11.064;2023-05-10T13:26:08;1.02;;;0.80;;
12224;SDS011;6175;50.956;11.064;2023-05-10T13:28:36;0.77;;;0.75;;
12224;SDS011;6175;50.956;11.064;2023-05-10T13:31:03;0.90;;;0.52;;
12224;SDS011;6175;50.956;11.064;2023-05-10T13:33:30;1.02;;;0.70;;
12224;SDS011;6175;50.956;11.064;2023-05-10T13:35:59;0.55;;;0.32;;
12224;SDS011;6175;50.956;11.064;2023-05-10T13:38:26;0.98;;;0.60;;
12224;SDS011;6175;50.956;11.064;2023-05-10T13:40:53;0.38;;;0.38;;
12224;SDS011;6175;50.956;11.064;2023-05-10T13:43:20;0.90;;;0.73;;
12224;SDS011;6175;50.956;11.064;2023-05-10T13:45:47;0.55;;;0.55;;
12224;SDS011;6175;50.956;11.064;2023-05-10T13:48:15;0.50;;;0.50;;
12224;SDS011;6175;50.956;11.064;2023-05-10T13:50:42;1.17;;;0.70;;
12224;SDS011;6175;50.956;11.064;2023-05-10T13:53:11;0.50;;;0.50;;
12224;SDS011;6175;50.956;11.064;2023-05-10T13:55:39;0.93;;;0.80;;
12224;SDS011;6175;50.956;11.064;2023-05-10T13:58:06;0.73;;;0.65;;
12224;SDS011;6175;50.956;11.064;2023-05-10T14:00:33;1.15;;;0.73;;
12224;SDS011;6175;50.956;11.064;2023-05-10T14:03:00;0.70;;;0.70;;
12224;SDS011;6175;50.956;11.064;2023-05-10T14:05:29;0.82;;;0.50;;
12224;SDS011;6175;50.956;11.064;2023-05-10T14:07:56;0.60;;;0.60;;
12224;SDS011;6175;50.956;11.064;2023-05-10T14:10:25;0.90;;;0.50;;
12224;SDS011;6175;50.956;11.064;2023-05-10T14:12:52;0.38;;;0.38;;
12224;SDS011;6175;50.956;11.064;2023-05-10T14:15:19;1.13;;;0.80;;
12224;SDS011;6175;50.956;11.064;2023-05-10T14:17:47;0.80;;;0.80;;
12224;SDS011;6175;50.956;11.064;2023-05-10T14:20:13;2.35;;;0.60;;
12224;SDS011;6175;50.956;11.064;2023-05-10T14:22:41;1.25;;;0.98;;
12224;SDS011;6175;50.956;11.064;2023-05-10T14:25:08;0.80;;;0.60;;
12224;SDS011;6175;50.956;11.064;2023-05-10T14:27:37;1.70;;;0.70;;
12224;SDS011;6175;50.956;11.064;2023-05-10T14:30:04;0.60;;;0.60;;
12224;SDS011;6175;50.956;11.064;2023-05-10T14:32:31;0.63;;;0.60;;
12224;SDS011;6175;50.956;11.064;2023-05-10T14:34:58;0.75;;;0.65;;
12224;SDS011;6175;50.956;11.064;2023-05-10T14:37:26;0.70;;;0.70;;
12224;SDS011;6175;50.956;11.064;2023-05-10T14:39:53;0.70;;;0.50;;
12224;SDS011;6175;50.956;11.064;2023-05-10T14:42:20;1.33;;;0.60;;
12224;SDS011;6175;50.956;11.064;2023-05-10T14:44:48;0.75;;;0.55;;
12224;SDS011;6175;50.956;11.064;2023-05-10T14:47:16;1.15;;;0.60;;
12224;SDS011;6175;50.956;11.064;2023-05-10T14:49:43;2.65;;;0.90;;
12224;SDS011;6175;50.956;11.064;2023-05-10T14:52:10;0.98;;;0.68;;
12224;SDS011;6175;50.956;11.064;2023-05-10T14:54:39;1.77;;;1.15;;
12224;SDS011;6175;50.956;11.064;2023-05-10T14:57:06;0.90;;;0.63;;
12224;SDS011;6175;50.956;11.064;2023-05-10T14:59:33;1.20;;;0.80;;
12224;SDS011;6175;50.956;11.064;2023-05-10T15:02:02;0.70;;;0.70;;
12224;SDS011;6175;50.956;11.064;2023-05-10T15:04:29;0.98;;;0.98;;